sensor_id;sensor_type;location;lat;lon;timestamp;P1;durP1;ratioP1;P2;durP2;ratioP2
21705;SDS011;11014;53.076;18.208;2023-02-19T00:00:14;11.00;;;3.75;;
21705;SDS011;11014;53.076;18.208;2023-02-19T00:03:03;14.88;;;5.03;;
21705;SDS011;11014;53.076;18.208;2023-02-19T00:05:31;19.35;;;6.10;;
21705;SDS011;11014;53.076;18.208;2023-02-19T00:08:02;12.13;;;3.85;;
21705;SDS011;11014;53.076;18.208;2023-02-19T00:10:30;8.88;;;3.53;;
21705;SDS011;11014;53.076;18.208;2023-02-19T00:12:59;9.70;;;3.53;;
21705;SDS011;11014;53.076;18.208;2023-02-19T00:15:30;16.50;;;5.15;;
21705;SDS011;11014;53.076;18.208;2023-02-19T00:18:00;13.95;;;3.42;;
21705;SDS011;11014;53.076;18.208;2023-02-19T00:20:28;7.90;;;3.05;;
21705;SDS011;11014;53.076;18.208;2023-02-19T00:22:57;10.45;;;4.60;;
21705;SDS011;11014;53.076;18.208;2023-02-19T00:25:25;6.38;;;3.13;;
21705;SDS011;11014;53.076;18.208;2023-02-19T00:27:54;11.65;;;4.47;;
21705;SDS011;11014;53.076;18.208;2023-02-19T00:30:26;10.73;;;3.85;;
21705;SDS011;11014;53.076;18.208;2023-02-19T00:32:55;8.10;;;3.63;;
21705;SDS011;11014;53.076;18.208;2023-02-19T00:35:23;7.80;;;3.70;;
21705;SDS011;11014;53.076;18.208;2023-02-19T00:37:52;13.45;;;3.97;;
21705;SDS011;11014;53.076;18.208;2023-02-19T00:40:21;7.85;;;2.45;;
21705;SDS011;11014;53.076;18.208;2023-02-19T00:42:50;10.77;;;3.70;;
21705;SDS011;11014;53.076;18.208;2023-02-19T00:45:19;6.75;;;3.40;;
21705;SDS011;11014;53.076;18.208;2023-02-19T00:47:47;8.20;;;3.25;;
21705;SDS011;11014;53.076;18.208;2023-02-19T00:50:16;6.95;;;2.95;;
21705;SDS011;11014;53.076;18.208;2023-02-19T00:52:44;6.63;;;2.20;;
21705;SDS011;11014;53.076;18.208;2023-02-19T00:55:14;8.40;;;3.53;;
21705;SDS011;11014;53.076;18.208;2023-02-19T00:57:42;5.68;;;2.53;;
21705;SDS011;11014;53.076;18.208;2023-02-19T01:00:11;10.73;;;3.13;;
21705;SDS011;11014;53.076;18.208;2023-02-19T01:02:40;3.25;;;1.80;;
21705;SDS011;11014;53.076;18.208;2023-02-19T01:05:08;7.40;;;3.53;;
21705;SDS011;11014;53.076;18.208;2023-02-19T01:07:38;7.60;;;2.60;;
21705;SDS011;11014;53.076;18.208;2023-02-19T01:10:07;8.20;;;3.03;;
21705;SDS011;11014;53.076;18.208;2023-02-19T01:12:36;8.40;;;3.33;;
21705;SDS011;11014;53.076;18.208;2023-02-19T01:15:04;7.30;;;3.05;;
21705;SDS011;11014;53.076;18.208;2023-02-19T01:17:35;8.05;;;3.10;;
21705;SDS011;11014;53.076;18.208;2023-02-19T01:20:03;10.43;;;2.85;;
21705;SDS011;11014;53.076;18.208;2023-02-19T01:22:32;8.05;;;3.17;;
21705;SDS011;11014;53.076;18.208;2023-02-19T01:25:01;8.20;;;3.25;;
21705;SDS011;11014;53.076;18.208;2023-02-19T01:27:29;11.35;;;3.60;;
21705;SDS011;11014;53.076;18.208;2023-02-19T01:29:58;8.18;;;3.00;;
21705;SDS011;11014;53.076;18.208;2023-02-19T01:32:27;7.07;;;3.13;;
21705;SDS011;11014;53.076;18.208;2023-02-19T01:34:55;8.25;;;2.97;;
21705;SDS011;11014;53.076;18.208;2023-02-19T01:37:23;10.63;;;3.70;;
21705;SDS011;11014;53.076;18.208;2023-02-19T01:39:52;11.32;;;3.08;;
21705;SDS011;11014;53.076;18.208;2023-02-19T01:42:20;8.13;;;2.70;;
21705;SDS011;11014;53.076;18.208;2023-02-19T01:47:18;10.65;;;3.15;;
21705;SDS011;11014;53.076;18.208;2023-02-19T01:49:52;7.45;;;3.03;;
21705;SDS011;11014;53.076;18.208;2023-02-19T01:52:28;11.30;;;5.03;;
21705;SDS011;11014;53.076;18.208;2023-02-19T01:55:02;15.30;;;4.32;;
21705;SDS011;11014;53.076;18.208;2023-02-19T01:57:36;10.27;;;3.40;;
21705;SDS011;11014;53.076;18.208;2023-02-19T02:00:11;12.75;;;3.08;;
21705;SDS011;11014;53.076;18.208;2023-02-19T02:02:44;6.50;;;2.42;;
21705;SDS011;11014;53.076;18.208;2023-02-19T02:05:20;12.48;;;4.30;;
21705;SDS011;11014;53.076;18.208;2023-02-19T02:07:59;6.53;;;3.33;;
21705;SDS011;11014;53.076;18.208;2023-02-19T02:10:49;9.93;;;3.63;;
21705;SDS011;11014;53.076;18.208;2023-02-19T02:13:18;8.80;;;3.33;;
21705;SDS011;11014;53.076;18.208;2023-02-19T02:15:53;9.93;;;3.88;;
21705;SDS011;11014;53.076;18.208;2023-02-19T02:21:45;10.75;;;4.30;;
21705;SDS011;11014;53.076;18.208;2023-02-19T02:30:30;12.50;;;3.65;;
21705;SDS011;11014;53.076;18.208;2023-02-19T02:33:23;8.35;;;3.85;;
21705;SDS011;11014;53.076;18.208;2023-02-19T02:38:28;10.48;;;3.80;;
21705;SDS011;11014;53.076;18.208;2023-02-19T02:40:58;8.93;;;3.27;;
21705;SDS011;11014;53.076;18.208;2023-02-19T02:43:28;11.50;;;4.13;;
21705;SDS011;11014;53.076;18.208;2023-02-19T02:45:56;9.63;;;3.13;;
21705;SDS011;11014;53.076;18.208;2023-02-19T02:48:54;16.00;;;4.38;;
21705;SDS011;11014;53.076;18.208;2023-02-19T02:51:35;10.23;;;3.85;;
21705;SDS011;11014;53.076;18.208;2023-02-19T02:54:15;12.23;;;4.03;;
21705;SDS011;11014;53.076;18.208;2023-02-19T02:57:10;10.77;;;3.33;;
21705;SDS011;11014;53.076;18.208;2023-02-19T03:02:23;6.07;;;2.92;;
21705;SDS011;11014;53.076;18.208;2023-02-19T03:04:56;9.43;;;3.20;;
21705;SDS011;11014;53.076;18.208;2023-02-19T03:07:53;8.30;;;3.17;;
21705;SDS011;11014;53.076;18.208;2023-02-19T03:10:48;7.82;;;2.85;;
21705;SDS011;11014;53.076;18.208;2023-02-19T03:16:25;14.27;;;3.72;;
21705;SDS011;11014;53.076;18.208;2023-02-19T03:19:15;12.70;;;3.20;;
21705;SDS011;11014;53.076;18.208;2023-02-19T03:21:53;17.30;;;3.70;;
21705;SDS011;11014;53.076;18.208;2023-02-19T03:24:44;8.85;;;3.30;;
21705;SDS011;11014;53.076;18.208;2023-02-19T03:27:40;8.75;;;3.00;;
21705;SDS011;11014;53.076;18.208;2023-02-19T03:30:13;8.77;;;3.45;;
21705;SDS011;11014;53.076;18.208;2023-02-19T03:35:39;9.88;;;4.38;;
21705;SDS011;11014;53.076;18.208;2023-02-19T03:38:20;11.35;;;4.13;;
21705;SDS011;11014;53.076;18.208;2023-02-19T03:43:39;8.52;;;2.95;;
21705;SDS011;11014;53.076;18.208;2023-02-19T03:46:20;12.55;;;4.28;;
21705;SDS011;11014;53.076;18.208;2023-02-19T03:49:03;10.45;;;3.90;;
21705;SDS011;11014;53.076;18.208;2023-02-19T03:51:50;8.90;;;3.20;;
21705;SDS011;11014;53.076;18.208;2023-02-19T03:55:00;8.18;;;3.67;;
21705;SDS011;11014;53.076;18.208;2023-02-19T03:57:50;9.73;;;3.38;;
21705;SDS011;11014;53.076;18.208;2023-02-19T04:03:10;10.60;;;3.50;;
21705;SDS011;11014;53.076;18.208;2023-02-19T04:06:02;10.10;;;4.13;;
21705;SDS011;11014;53.076;18.208;2023-02-19T04:08:34;7.50;;;2.88;;
21705;SDS011;11014;53.076;18.208;2023-02-19T04:11:07;12.10;;;3.67;;
21705;SDS011;11014;53.076;18.208;2023-02-19T04:13:43;7.38;;;3.33;;
21705;SDS011;11014;53.076;18.208;2023-02-19T04:16:18;10.05;;;3.63;;
21705;SDS011;11014;53.076;18.208;2023-02-19T04:18:50;9.88;;;4.03;;
21705;SDS011;11014;53.076;18.208;2023-02-19T04:21:21;9.48;;;3.15;;
21705;SDS011;11014;53.076;18.208;2023-02-19T04:23:50;9.35;;;3.45;;
21705;SDS011;11014;53.076;18.208;2023-02-19T04:26:19;8.80;;;3.55;;
21705;SDS011;11014;53.076;18.208;2023-02-19T04:28:50;11.97;;;3.63;;
21705;SDS011;11014;53.076;18.208;2023-02-19T04:31:19;5.65;;;3.30;;
21705;SDS011;11014;53.076;18.208;2023-02-19T04:33:47;8.65;;;3.65;;
21705;SDS011;11014;53.076;18.208;2023-02-19T04:36:16;12.65;;;3.97;;
21705;SDS011;11014;53.076;18.208;2023-02-19T04:38:44;7.95;;;3.00;;
21705;SDS011;11014;53.076;18.208;2023-02-19T04:41:13;8.02;;;3.33;;
21705;SDS011;11014;53.076;18.208;2023-02-19T04:43:41;7.65;;;3.50;;
21705;SDS011;11014;53.076;18.208;2023-02-19T04:46:10;10.13;;;3.60;;
21705;SDS011;11014;53.076;18.208;2023-02-19T04:48:38;8.00;;;3.42;;
21705;SDS011;11014;53.076;18.208;2023-02-19T04:51:07;8.85;;;2.60;;
21705;SDS011;11014;53.076;18.208;2023-02-19T04:53:37;9.45;;;3.53;;
21705;SDS011;11014;53.076;18.208;2023-02-19T04:56:11;8.55;;;3.50;;
21705;SDS011;11014;53.076;18.208;2023-02-19T04:58:41;9.35;;;3.70;;
21705;SDS011;11014;53.076;18.208;2023-02-19T05:01:10;8.68;;;3.05;;
21705;SDS011;11014;53.076;18.208;2023-02-19T05:03:39;8.15;;;3.33;;
21705;SDS011;11014;53.076;18.208;2023-02-19T05:06:11;9.70;;;3.25;;
21705;SDS011;11014;53.076;18.208;2023-02-19T05:08:41;9.05;;;2.95;;
21705;SDS011;11014;53.076;18.208;2023-02-19T05:11:10;7.57;;;3.40;;
21705;SDS011;11014;53.076;18.208;2023-02-19T05:13:40;6.65;;;3.03;;
21705;SDS011;11014;53.076;18.208;2023-02-19T05:16:10;8.52;;;3.25;;
21705;SDS011;11014;53.076;18.208;2023-02-19T05:18:43;8.40;;;4.00;;
21705;SDS011;11014;53.076;18.208;2023-02-19T05:21:13;10.90;;;3.58;;
21705;SDS011;11014;53.076;18.208;2023-02-19T05:23:42;5.40;;;2.95;;
21705;SDS011;11014;53.076;18.208;2023-02-19T05:26:16;7.40;;;3.30;;
21705;SDS011;11014;53.076;18.208;2023-02-19T05:28:47;6.97;;;3.25;;
21705;SDS011;11014;53.076;18.208;2023-02-19T05:31:18;10.60;;;3.22;;
21705;SDS011;11014;53.076;18.208;2023-02-19T05:33:47;11.13;;;3.42;;
21705;SDS011;11014;53.076;18.208;2023-02-19T05:36:19;11.13;;;3.00;;
21705;SDS011;11014;53.076;18.208;2023-02-19T05:38:52;7.32;;;2.88;;
21705;SDS011;11014;53.076;18.208;2023-02-19T05:41:26;8.63;;;3.70;;
21705;SDS011;11014;53.076;18.208;2023-02-19T05:43:55;10.30;;;3.63;;
21705;SDS011;11014;53.076;18.208;2023-02-19T05:46:26;12.23;;;3.47;;
21705;SDS011;11014;53.076;18.208;2023-02-19T05:48:56;10.05;;;3.65;;
21705;SDS011;11014;53.076;18.208;2023-02-19T05:51:27;6.10;;;2.70;;
21705;SDS011;11014;53.076;18.208;2023-02-19T05:53:55;10.93;;;3.63;;
21705;SDS011;11014;53.076;18.208;2023-02-19T05:56:34;10.07;;;3.85;;
21705;SDS011;11014;53.076;18.208;2023-02-19T05:59:06;7.50;;;3.40;;
21705;SDS011;11014;53.076;18.208;2023-02-19T06:01:42;12.27;;;3.88;;
21705;SDS011;11014;53.076;18.208;2023-02-19T06:04:11;6.82;;;3.92;;
21705;SDS011;11014;53.076;18.208;2023-02-19T06:06:41;11.18;;;4.10;;
21705;SDS011;11014;53.076;18.208;2023-02-19T06:09:09;7.43;;;3.05;;
21705;SDS011;11014;53.076;18.208;2023-02-19T06:11:38;12.27;;;3.10;;
21705;SDS011;11014;53.076;18.208;2023-02-19T06:14:07;8.32;;;3.45;;
21705;SDS011;11014;53.076;18.208;2023-02-19T06:16:38;8.38;;;3.10;;
21705;SDS011;11014;53.076;18.208;2023-02-19T06:19:06;8.40;;;3.92;;
21705;SDS011;11014;53.076;18.208;2023-02-19T06:21:35;6.18;;;2.65;;
21705;SDS011;11014;53.076;18.208;2023-02-19T06:24:07;9.40;;;3.60;;
21705;SDS011;11014;53.076;18.208;2023-02-19T06:26:36;9.30;;;3.90;;
21705;SDS011;11014;53.076;18.208;2023-02-19T06:29:05;13.73;;;3.30;;
21705;SDS011;11014;53.076;18.208;2023-02-19T06:31:34;13.80;;;4.15;;
21705;SDS011;11014;53.076;18.208;2023-02-19T06:34:03;6.57;;;3.28;;
21705;SDS011;11014;53.076;18.208;2023-02-19T06:36:32;8.35;;;3.53;;
21705;SDS011;11014;53.076;18.208;2023-02-19T06:39:01;9.38;;;3.65;;
21705;SDS011;11014;53.076;18.208;2023-02-19T06:41:31;9.75;;;3.70;;
21705;SDS011;11014;53.076;18.208;2023-02-19T06:44:00;10.77;;;3.67;;
21705;SDS011;11014;53.076;18.208;2023-02-19T06:46:29;8.38;;;3.78;;
21705;SDS011;11014;53.076;18.208;2023-02-19T06:48:57;10.45;;;3.90;;
21705;SDS011;11014;53.076;18.208;2023-02-19T06:51:26;9.23;;;3.20;;
21705;SDS011;11014;53.076;18.208;2023-02-19T06:53:56;10.63;;;4.28;;
21705;SDS011;11014;53.076;18.208;2023-02-19T06:56:26;6.93;;;3.45;;
21705;SDS011;11014;53.076;18.208;2023-02-19T06:58:56;9.25;;;3.05;;
21705;SDS011;11014;53.076;18.208;2023-02-19T07:01:27;10.27;;;4.00;;
21705;SDS011;11014;53.076;18.208;2023-02-19T07:03:57;4.53;;;2.08;;
21705;SDS011;11014;53.076;18.208;2023-02-19T07:06:26;7.90;;;3.92;;
21705;SDS011;11014;53.076;18.208;2023-02-19T07:08:57;9.02;;;3.80;;
21705;SDS011;11014;53.076;18.208;2023-02-19T07:11:28;7.38;;;3.58;;
21705;SDS011;11014;53.076;18.208;2023-02-19T07:13:58;13.02;;;3.75;;
21705;SDS011;11014;53.076;18.208;2023-02-19T07:16:29;10.80;;;4.50;;
21705;SDS011;11014;53.076;18.208;2023-02-19T07:18:58;10.65;;;4.95;;
21705;SDS011;11014;53.076;18.208;2023-02-19T07:21:28;13.30;;;5.03;;
21705;SDS011;11014;53.076;18.208;2023-02-19T07:23:57;18.00;;;5.40;;
21705;SDS011;11014;53.076;18.208;2023-02-19T07:26:25;10.88;;;5.40;;
21705;SDS011;11014;53.076;18.208;2023-02-19T07:28:54;11.32;;;5.55;;
21705;SDS011;11014;53.076;18.208;2023-02-19T07:31:23;7.90;;;3.95;;
21705;SDS011;11014;53.076;18.208;2023-02-19T07:33:52;10.68;;;4.85;;
21705;SDS011;11014;53.076;18.208;2023-02-19T07:36:21;13.18;;;5.40;;
21705;SDS011;11014;53.076;18.208;2023-02-19T07:38:55;9.65;;;4.22;;
21705;SDS011;11014;53.076;18.208;2023-02-19T07:41:25;14.43;;;5.70;;
21705;SDS011;11014;53.076;18.208;2023-02-19T07:43:57;11.77;;;4.70;;
21705;SDS011;11014;53.076;18.208;2023-02-19T07:46:26;8.95;;;3.75;;
21705;SDS011;11014;53.076;18.208;2023-02-19T07:48:55;6.50;;;3.15;;
21705;SDS011;11014;53.076;18.208;2023-02-19T07:51:23;15.38;;;5.75;;
21705;SDS011;11014;53.076;18.208;2023-02-19T07:53:51;15.63;;;6.32;;
21705;SDS011;11014;53.076;18.208;2023-02-19T07:56:22;8.52;;;4.90;;
21705;SDS011;11014;53.076;18.208;2023-02-19T07:58:51;12.55;;;4.68;;
21705;SDS011;11014;53.076;18.208;2023-02-19T08:01:22;13.20;;;4.20;;
21705;SDS011;11014;53.076;18.208;2023-02-19T08:04:12;17.75;;;5.85;;
21705;SDS011;11014;53.076;18.208;2023-02-19T08:06:42;20.33;;;8.90;;
21705;SDS011;11014;53.076;18.208;2023-02-19T08:09:11;15.80;;;6.50;;
21705;SDS011;11014;53.076;18.208;2023-02-19T08:11:40;17.13;;;7.03;;
21705;SDS011;11014;53.076;18.208;2023-02-19T08:14:26;15.77;;;7.03;;
21705;SDS011;11014;53.076;18.208;2023-02-19T08:16:55;8.30;;;3.80;;
21705;SDS011;11014;53.076;18.208;2023-02-19T08:19:24;14.88;;;7.57;;
21705;SDS011;11014;53.076;18.208;2023-02-19T08:21:53;17.35;;;6.53;;
21705;SDS011;11014;53.076;18.208;2023-02-19T08:24:21;6.35;;;3.05;;
21705;SDS011;11014;53.076;18.208;2023-02-19T08:26:50;21.10;;;11.80;;
21705;SDS011;11014;53.076;18.208;2023-02-19T08:49:40;26.05;;;12.27;;
21705;SDS011;11014;53.076;18.208;2023-02-19T08:52:09;15.90;;;6.88;;
21705;SDS011;11014;53.076;18.208;2023-02-19T08:54:38;13.68;;;6.32;;
21705;SDS011;11014;53.076;18.208;2023-02-19T08:57:06;11.57;;;7.18;;
21705;SDS011;11014;53.076;18.208;2023-02-19T08:59:35;14.90;;;7.40;;
21705;SDS011;11014;53.076;18.208;2023-02-19T09:02:03;14.27;;;6.28;;
21705;SDS011;11014;53.076;18.208;2023-02-19T09:04:32;10.77;;;5.38;;
21705;SDS011;11014;53.076;18.208;2023-02-19T09:07:00;23.92;;;11.50;;
21705;SDS011;11014;53.076;18.208;2023-02-19T09:09:29;16.35;;;7.22;;
21705;SDS011;11014;53.076;18.208;2023-02-19T09:11:57;11.13;;;3.85;;
21705;SDS011;11014;53.076;18.208;2023-02-19T09:14:26;10.95;;;4.35;;
21705;SDS011;11014;53.076;18.208;2023-02-19T09:16:55;9.90;;;3.80;;
21705;SDS011;11014;53.076;18.208;2023-02-19T09:19:31;17.45;;;7.35;;
21705;SDS011;11014;53.076;18.208;2023-02-19T09:22:04;8.13;;;2.95;;
21705;SDS011;11014;53.076;18.208;2023-02-19T09:24:37;9.25;;;3.30;;
21705;SDS011;11014;53.076;18.208;2023-02-19T09:27:06;6.78;;;2.80;;
21705;SDS011;11014;53.076;18.208;2023-02-19T09:29:34;10.20;;;4.07;;
21705;SDS011;11014;53.076;18.208;2023-02-19T09:32:03;11.55;;;3.88;;
21705;SDS011;11014;53.076;18.208;2023-02-19T09:34:31;10.73;;;2.45;;
21705;SDS011;11014;53.076;18.208;2023-02-19T09:37:00;12.38;;;3.75;;
21705;SDS011;11014;53.076;18.208;2023-02-19T09:39:28;7.85;;;2.83;;
21705;SDS011;11014;53.076;18.208;2023-02-19T09:42:02;6.53;;;2.53;;
21705;SDS011;11014;53.076;18.208;2023-02-19T09:44:39;9.00;;;2.78;;
21705;SDS011;11014;53.076;18.208;2023-02-19T09:47:18;5.00;;;1.98;;
21705;SDS011;11014;53.076;18.208;2023-02-19T09:49:49;9.63;;;3.30;;
21705;SDS011;11014;53.076;18.208;2023-02-19T09:57:48;9.73;;;3.40;;
21705;SDS011;11014;53.076;18.208;2023-02-19T10:02:50;12.70;;;3.40;;
21705;SDS011;11014;53.076;18.208;2023-02-19T10:05:33;12.23;;;4.15;;
21705;SDS011;11014;53.076;18.208;2023-02-19T10:08:03;13.43;;;3.80;;
21705;SDS011;11014;53.076;18.208;2023-02-19T10:10:34;10.20;;;2.95;;
21705;SDS011;11014;53.076;18.208;2023-02-19T10:13:12;7.47;;;2.10;;
21705;SDS011;11014;53.076;18.208;2023-02-19T10:15:49;10.05;;;2.78;;
21705;SDS011;11014;53.076;18.208;2023-02-19T10:18:22;13.75;;;4.20;;
21705;SDS011;11014;53.076;18.208;2023-02-19T10:20:55;10.43;;;2.92;;
21705;SDS011;11014;53.076;18.208;2023-02-19T10:23:24;8.25;;;2.85;;
21705;SDS011;11014;53.076;18.208;2023-02-19T10:25:56;9.43;;;2.83;;
21705;SDS011;11014;53.076;18.208;2023-02-19T10:28:32;5.35;;;2.03;;
21705;SDS011;11014;53.076;18.208;2023-02-19T10:31:02;12.23;;;2.90;;
21705;SDS011;11014;53.076;18.208;2023-02-19T10:33:34;7.60;;;2.63;;
21705;SDS011;11014;53.076;18.208;2023-02-19T10:36:28;9.18;;;2.35;;
21705;SDS011;11014;53.076;18.208;2023-02-19T10:39:00;8.93;;;2.53;;
21705;SDS011;11014;53.076;18.208;2023-02-19T10:41:33;5.68;;;2.53;;
21705;SDS011;11014;53.076;18.208;2023-02-19T10:44:15;6.70;;;1.95;;
21705;SDS011;11014;53.076;18.208;2023-02-19T10:46:49;5.78;;;1.75;;
21705;SDS011;11014;53.076;18.208;2023-02-19T10:49:24;5.43;;;1.67;;
21705;SDS011;11014;53.076;18.208;2023-02-19T10:52:12;4.38;;;2.50;;
21705;SDS011;11014;53.076;18.208;2023-02-19T10:54:45;5.43;;;1.55;;
21705;SDS011;11014;53.076;18.208;2023-02-19T11:02:19;8.45;;;2.00;;
21705;SDS011;11014;53.076;18.208;2023-02-19T11:05:34;5.03;;;1.85;;
21705;SDS011;11014;53.076;18.208;2023-02-19T11:07:47;3.85;;;1.63;;
21705;SDS011;11014;53.076;18.208;2023-02-19T11:12:56;3.75;;;1.15;;
21705;SDS011;11014;53.076;18.208;2023-02-19T11:15:28;2.45;;;1.13;;
21705;SDS011;11014;53.076;18.208;2023-02-19T11:20:51;5.80;;;1.85;;
21705;SDS011;11014;53.076;18.208;2023-02-19T11:23:31;4.80;;;2.10;;
21705;SDS011;11014;53.076;18.208;2023-02-19T11:29:44;4.47;;;1.20;;
21705;SDS011;11014;53.076;18.208;2023-02-19T11:34:48;5.30;;;2.00;;
21705;SDS011;11014;53.076;18.208;2023-02-19T11:37:17;8.35;;;3.55;;
21705;SDS011;11014;53.076;18.208;2023-02-19T11:39:48;9.20;;;2.00;;
21705;SDS011;11014;53.076;18.208;2023-02-19T11:42:22;5.95;;;2.05;;
21705;SDS011;11014;53.076;18.208;2023-02-19T11:45:16;10.70;;;3.67;;
21705;SDS011;11014;53.076;18.208;2023-02-19T11:48:00;6.35;;;1.92;;
21705;SDS011;11014;53.076;18.208;2023-02-19T11:50:47;7.50;;;2.40;;
21705;SDS011;11014;53.076;18.208;2023-02-19T11:53:36;5.30;;;2.00;;
21705;SDS011;11014;53.076;18.208;2023-02-19T11:56:18;7.93;;;1.88;;
21705;SDS011;11014;53.076;18.208;2023-02-19T11:59:03;6.65;;;2.25;;
21705;SDS011;11014;53.076;18.208;2023-02-19T12:12:56;1.77;;;0.95;;
21705;SDS011;11014;53.076;18.208;2023-02-19T12:16:00;2.90;;;1.75;;
21705;SDS011;11014;53.076;18.208;2023-02-19T12:43:09;4.05;;;1.23;;
21705;SDS011;11014;53.076;18.208;2023-02-19T12:45:44;4.63;;;1.90;;
21705;SDS011;11014;53.076;18.208;2023-02-19T12:48:35;5.68;;;1.40;;
21705;SDS011;11014;53.076;18.208;2023-02-19T12:57:24;3.75;;;1.50;;
21705;SDS011;11014;53.076;18.208;2023-02-19T12:59:59;3.38;;;1.40;;
21705;SDS011;11014;53.076;18.208;2023-02-19T13:09:01;3.15;;;1.17;;
21705;SDS011;11014;53.076;18.208;2023-02-19T13:11:36;3.50;;;1.63;;
21705;SDS011;11014;53.076;18.208;2023-02-19T13:17:33;3.25;;;1.52;;
21705;SDS011;11014;53.076;18.208;2023-02-19T13:23:07;4.20;;;1.48;;
21705;SDS011;11014;53.076;18.208;2023-02-19T13:29:10;4.85;;;2.25;;
21705;SDS011;11014;53.076;18.208;2023-02-19T13:35:32;5.07;;;2.80;;
21705;SDS011;11014;53.076;18.208;2023-02-19T13:38:28;2.67;;;1.83;;
21705;SDS011;11014;53.076;18.208;2023-02-19T13:40:57;1.88;;;1.30;;
21705;SDS011;11014;53.076;18.208;2023-02-19T13:43:31;4.90;;;1.95;;
21705;SDS011;11014;53.076;18.208;2023-02-19T13:46:10;4.55;;;2.70;;
21705;SDS011;11014;53.076;18.208;2023-02-19T13:48:42;4.35;;;2.10;;
21705;SDS011;11014;53.076;18.208;2023-02-19T13:51:45;2.10;;;0.95;;
21705;SDS011;11014;53.076;18.208;2023-02-19T13:54:33;2.88;;;1.67;;
21705;SDS011;11014;53.076;18.208;2023-02-19T13:59:45;2.72;;;1.35;;
21705;SDS011;11014;53.076;18.208;2023-02-19T14:07:46;3.40;;;1.55;;
21705;SDS011;11014;53.076;18.208;2023-02-19T14:16:31;2.90;;;1.25;;
21705;SDS011;11014;53.076;18.208;2023-02-19T14:19:50;4.57;;;1.50;;
21705;SDS011;11014;53.076;18.208;2023-02-19T14:22:57;3.28;;;1.75;;
21705;SDS011;11014;53.076;18.208;2023-02-19T14:25:30;5.47;;;2.22;;
21705;SDS011;11014;53.076;18.208;2023-02-19T14:28:21;3.75;;;1.10;;
21705;SDS011;11014;53.076;18.208;2023-02-19T14:33:43;3.35;;;0.90;;
21705;SDS011;11014;53.076;18.208;2023-02-19T14:36:25;3.83;;;1.27;;
21705;SDS011;11014;53.076;18.208;2023-02-19T14:39:18;2.60;;;1.42;;
21705;SDS011;11014;53.076;18.208;2023-02-19T14:41:51;2.20;;;0.90;;
21705;SDS011;11014;53.076;18.208;2023-02-19T14:44:24;1.05;;;0.70;;
21705;SDS011;11014;53.076;18.208;2023-02-19T14:46:56;4.22;;;1.90;;
21705;SDS011;11014;53.076;18.208;2023-02-19T14:49:52;2.72;;;1.50;;
21705;SDS011;11014;53.076;18.208;2023-02-19T14:52:33;2.55;;;1.00;;
21705;SDS011;11014;53.076;18.208;2023-02-19T14:55:16;4.28;;;1.60;;
21705;SDS011;11014;53.076;18.208;2023-02-19T14:58:20;3.85;;;0.90;;
21705;SDS011;11014;53.076;18.208;2023-02-19T15:00:51;1.45;;;0.90;;
21705;SDS011;11014;53.076;18.208;2023-02-19T15:03:24;2.30;;;0.57;;
21705;SDS011;11014;53.076;18.208;2023-02-19T15:06:01;1.35;;;0.75;;
21705;SDS011;11014;53.076;18.208;2023-02-19T15:08:37;1.60;;;1.00;;
21705;SDS011;11014;53.076;18.208;2023-02-19T15:11:14;4.20;;;1.08;;
21705;SDS011;11014;53.076;18.208;2023-02-19T15:13:50;1.95;;;1.10;;
21705;SDS011;11014;53.076;18.208;2023-02-19T15:16:26;1.90;;;0.95;;
21705;SDS011;11014;53.076;18.208;2023-02-19T15:18:58;2.40;;;0.90;;
21705;SDS011;11014;53.076;18.208;2023-02-19T15:21:28;6.50;;;1.20;;
21705;SDS011;11014;53.076;18.208;2023-02-19T15:24:00;1.95;;;0.80;;
21705;SDS011;11014;53.076;18.208;2023-02-19T15:26:35;2.10;;;1.10;;
21705;SDS011;11014;53.076;18.208;2023-02-19T15:29:09;3.28;;;1.20;;
21705;SDS011;11014;53.076;18.208;2023-02-19T15:31:45;1.65;;;1.08;;
21705;SDS011;11014;53.076;18.208;2023-02-19T15:34:19;0.38;;;0.32;;
21705;SDS011;11014;53.076;18.208;2023-02-19T15:36:51;1.23;;;0.75;;
21705;SDS011;11014;53.076;18.208;2023-02-19T15:39:26;3.05;;;1.63;;
21705;SDS011;11014;53.076;18.208;2023-02-19T15:42:01;2.92;;;1.75;;
21705;SDS011;11014;53.076;18.208;2023-02-19T15:44:44;2.85;;;1.17;;
21705;SDS011;11014;53.076;18.208;2023-02-19T15:47:29;1.42;;;0.63;;
21705;SDS011;11014;53.076;18.208;2023-02-19T15:50:07;2.67;;;1.38;;
21705;SDS011;11014;53.076;18.208;2023-02-19T15:52:58;11.30;;;4.55;;
21705;SDS011;11014;53.076;18.208;2023-02-19T15:55:49;3.35;;;1.77;;
21705;SDS011;11014;53.076;18.208;2023-02-19T15:58:26;4.88;;;1.60;;
21705;SDS011;11014;53.076;18.208;2023-02-19T16:01:01;3.65;;;1.23;;
21705;SDS011;11014;53.076;18.208;2023-02-19T16:03:32;5.10;;;2.17;;
21705;SDS011;11014;53.076;18.208;2023-02-19T16:06:07;2.58;;;1.20;;
21705;SDS011;11014;53.076;18.208;2023-02-19T16:12:33;5.32;;;2.40;;
21705;SDS011;11014;53.076;18.208;2023-02-19T16:15:10;5.53;;;1.95;;
21705;SDS011;11014;53.076;18.208;2023-02-19T16:20:42;1.67;;;1.15;;
21705;SDS011;11014;53.076;18.208;2023-02-19T16:23:15;2.10;;;0.82;;
21705;SDS011;11014;53.076;18.208;2023-02-19T16:25:47;2.20;;;1.15;;
21705;SDS011;11014;53.076;18.208;2023-02-19T16:31:03;1.60;;;1.10;;
21705;SDS011;11014;53.076;18.208;2023-02-19T16:33:36;2.50;;;1.08;;
21705;SDS011;11014;53.076;18.208;2023-02-19T16:36:35;6.43;;;1.33;;
21705;SDS011;11014;53.076;18.208;2023-02-19T16:41:46;5.53;;;1.00;;
21705;SDS011;11014;53.076;18.208;2023-02-19T16:44:42;2.63;;;1.23;;
21705;SDS011;11014;53.076;18.208;2023-02-19T16:47:13;2.40;;;0.98;;
21705;SDS011;11014;53.076;18.208;2023-02-19T16:49:52;1.33;;;0.93;;
21705;SDS011;11014;53.076;18.208;2023-02-19T16:52:21;2.45;;;1.25;;
21705;SDS011;11014;53.076;18.208;2023-02-19T16:54:49;4.35;;;1.60;;
21705;SDS011;11014;53.076;18.208;2023-02-19T16:57:18;2.58;;;1.30;;
21705;SDS011;11014;53.076;18.208;2023-02-19T16:59:47;5.50;;;1.75;;
21705;SDS011;11014;53.076;18.208;2023-02-19T17:02:20;2.03;;;1.02;;
21705;SDS011;11014;53.076;18.208;2023-02-19T17:04:51;3.88;;;1.35;;
21705;SDS011;11014;53.076;18.208;2023-02-19T17:07:22;2.30;;;1.10;;
21705;SDS011;11014;53.076;18.208;2023-02-19T17:13:35;3.90;;;1.80;;
21705;SDS011;11014;53.076;18.208;2023-02-19T17:16:03;3.70;;;1.15;;
21705;SDS011;11014;53.076;18.208;2023-02-19T17:18:32;3.13;;;1.30;;
21705;SDS011;11014;53.076;18.208;2023-02-19T17:21:05;5.15;;;1.27;;
21705;SDS011;11014;53.076;18.208;2023-02-19T17:23:41;5.75;;;1.40;;
21705;SDS011;11014;53.076;18.208;2023-02-19T17:26:19;2.55;;;1.30;;
21705;SDS011;11014;53.076;18.208;2023-02-19T17:28:57;7.05;;;1.80;;
21705;SDS011;11014;53.076;18.208;2023-02-19T17:31:26;8.02;;;1.80;;
21705;SDS011;11014;53.076;18.208;2023-02-19T17:33:56;7.30;;;2.72;;
21705;SDS011;11014;53.076;18.208;2023-02-19T17:36:26;6.05;;;1.98;;
21705;SDS011;11014;53.076;18.208;2023-02-19T17:38:58;3.17;;;1.92;;
21705;SDS011;11014;53.076;18.208;2023-02-19T17:41:28;6.00;;;2.33;;
21705;SDS011;11014;53.076;18.208;2023-02-19T17:43:58;11.25;;;5.90;;
21705;SDS011;11014;53.076;18.208;2023-02-19T17:46:26;6.28;;;2.80;;
21705;SDS011;11014;53.076;18.208;2023-02-19T17:48:55;6.93;;;3.22;;
21705;SDS011;11014;53.076;18.208;2023-02-19T17:51:23;9.50;;;3.80;;
21705;SDS011;11014;53.076;18.208;2023-02-19T17:53:52;7.80;;;3.72;;
21705;SDS011;11014;53.076;18.208;2023-02-19T17:56:21;13.40;;;5.63;;
21705;SDS011;11014;53.076;18.208;2023-02-19T17:58:55;21.60;;;8.82;;